Time;durP1;ratioP1;P1;durP2;ratioP2;P2;SDS_P1;SDS_P2;PMS_P1;PMS_P2;Temp;Humidity;BMP_temperature;BMP_pressure;BME280_temperature;BME280_humidity;BME280_pressure;Samples;Min_cycle;Max_cycle;Signal;HPM_P1;HPM_P2
2021/01/31 00:00:27;;;;;;;85.55;47.50;;;-1.00;92.40;;;;;;5006327;28;20217;-68
2021/01/31 00:03:00;;;;;;;76.78;44.70;;;-3.20;91.90;;;;;;5008848;28;20201;-67
2021/01/31 00:05:28;;;;;;;80.13;47.92;;;-3.30;92.00;;;;;;5006878;28;20237;-68
2021/01/31 00:07:55;;;;;;;82.22;45.90;;;-3.30;92.10;;;;;;5017521;28;20236;-67
2021/01/31 00:10:31;;;;;;;89.95;49.95;;;-3.40;92.10;;;;;;5019809;28;20232;-67
2021/01/31 00:13:01;;;;;;;86.50;48.72;;;-3.50;92.10;;;;;;5018481;28;20205;-70
2021/01/31 00:15:35;;;;;;;75.18;47.28;;;-2.60;92.30;;;;;;5014192;28;20249;-68
2021/01/31 00:18:03;;;;;;;86.55;50.70;;;-3.50;92.10;;;;;;5014240;28;20500;-66
2021/01/31 00:20:32;;;;;;;90.97;50.80;;;-3.50;92.00;;;;;;5018663;28;20279;-67
2021/01/31 00:22:59;;;;;;;100.40;54.63;;;-3.50;92.20;;;;;;5019066;28;20215;-67
2021/01/31 00:25:26;;;;;;;81.80;49.20;;;-3.00;92.50;;;;;;5015467;28;20285;-67
2021/01/31 00:27:53;;;;;;;102.38;56.13;;;-2.70;92.50;;;;;;5005159;28;20233;-67
2021/01/31 00:30:24;;;;;;;125.60;63.42;;;-1.60;92.80;;;;;;5005516;28;20489;-66
2021/01/31 00:32:52;;;;;;;95.88;56.53;;;-3.60;92.30;;;;;;5019321;28;20276;-67
2021/01/31 00:35:21;;;;;;;109.55;57.25;;;-3.60;92.40;;;;;;5000360;28;20212;-67
2021/01/31 00:37:48;;;;;;;106.13;56.25;;;-3.60;92.50;;;;;;5008016;28;21342;-66
2021/01/31 00:40:15;;;;;;;101.10;58.45;;;-3.60;92.40;;;;;;5010180;28;20209;-67
2021/01/31 00:42:43;;;;;;;119.63;59.45;;;-3.60;92.50;;;;;;5019316;28;20212;-68
2021/01/31 00:45:13;;;;;;;108.53;55.45;;;-2.50;92.70;;;;;;5012771;28;20432;-67
2021/01/31 00:47:40;;;;;;;113.68;57.67;;;-3.60;92.40;;;;;;5003785;28;20247;-67
2021/01/31 00:50:08;;;;;;;106.30;56.17;;;-2.50;92.70;;;;;;5010751;28;20202;-67
2021/01/31 00:52:35;;;;;;;102.53;51.53;;;-3.60;92.20;;;;;;5013383;28;20227;-67
2021/01/31 00:55:01;;;;;;;115.25;58.65;;;-3.60;92.30;;;;;;5007383;28;20209;-67
2021/01/31 00:57:28;;;;;;;115.32;60.80;;;-3.60;92.30;;;;;;5017633;28;20213;-67
2021/01/31 00:59:54;;;;;;;100.88;53.42;;;-3.60;92.40;;;;;;5019300;28;20213;-68
2021/01/31 01:02:21;;;;;;;101.30;54.85;;;-3.00;92.50;;;;;;5018923;28;20236;-67
2021/01/31 01:04:49;;;;;;;104.13;52.15;;;-3.50;92.30;;;;;;5009908;28;20212;-67
2021/01/31 01:07:17;;;;;;;90.13;46.70;;;-3.60;92.30;;;;;;5011028;28;20267;-67
2021/01/31 01:09:46;;;;;;;97.00;51.88;;;-3.60;92.80;;;;;;5018102;28;20229;-67
2021/01/31 01:12:12;;;;;;;99.88;53.63;;;-3.70;92.40;;;;;;5019231;28;20748;-66
2021/01/31 01:14:39;;;;;;;86.10;50.67;;;-3.70;92.40;;;;;;5019190;28;20248;-66
2021/01/31 01:17:06;;;;;;;86.97;48.20;;;-3.70;92.30;;;;;;5006474;28;20208;-67
2021/01/31 01:19:32;;;;;;;97.97;49.83;;;-3.80;92.40;;;;;;5006942;28;20222;-67
2021/01/31 01:21:59;;;;;;;98.90;52.03;;;-3.80;92.40;;;;;;5016257;28;20203;-67
2021/01/31 01:24:25;;;;;;;92.22;51.22;;;-3.80;92.30;;;;;;5019259;28;20232;-67
2021/01/31 01:26:52;;;;;;;98.55;51.58;;;-2.80;92.50;;;;;;5016017;28;20224;-67
2021/01/31 01:29:19;;;;;;;84.00;45.83;;;-1.90;92.80;;;;;;5010556;28;20647;-66
2021/01/31 01:31:46;;;;;;;97.45;48.33;;;-3.50;92.40;;;;;;5016704;28;20209;-67
2021/01/31 01:34:13;;;;;;;81.35;47.00;;;-4.00;92.10;;;;;;5018808;28;20205;-66
2021/01/31 01:36:40;;;;;;;84.43;45.15;;;-4.00;92.00;;;;;;5018836;28;20586;-66
2021/01/31 01:39:07;;;;;;;81.93;46.28;;;-4.00;92.00;;;;;;5002892;28;20271;-66
2021/01/31 01:41:44;;;;;;;86.43;47.63;;;-4.10;91.90;;;;;;5018977;28;20217;-68
2021/01/31 01:44:11;;;;;;;93.70;54.00;;;-4.10;91.90;;;;;;5015228;28;20198;-67
2021/01/31 01:46:41;;;;;;;94.45;52.10;;;-4.10;91.90;;;;;;5000008;28;20236;-67
2021/01/31 01:49:17;;;;;;;107.03;63.22;;;-3.10;92.40;;;;;;5014190;28;20549;-66
2021/01/31 01:51:51;;;;;;;118.30;60.88;;;-4.10;92.00;;;;;;5006559;28;20495;-67
2021/01/31 01:54:36;;;;;;;93.65;53.90;;;-2.30;92.50;;;;;;5013702;28;20575;-66
2021/01/31 01:57:12;;;;;;;87.00;51.13;;;-4.20;92.00;;;;;;5011650;28;20247;-66
2021/01/31 01:59:41;;;;;;;96.63;56.95;;;-4.20;92.00;;;;;;5013164;28;20275;-67
2021/01/31 02:02:13;;;;;;;96.93;57.10;;;-4.20;92.00;;;;;;5006825;28;20212;-66
2021/01/31 02:04:40;;;;;;;86.75;55.90;;;-4.30;92.10;;;;;;5005679;28;20656;-67
2021/01/31 02:07:07;;;;;;;90.10;56.55;;;-4.30;92.10;;;;;;5018499;28;20217;-68
2021/01/31 02:09:34;;;;;;;102.70;58.25;;;-4.30;92.10;;;;;;5015850;28;20231;-67
2021/01/31 02:12:04;;;;;;;99.20;58.30;;;-3.80;92.20;;;;;;5018427;28;20209;-67
2021/01/31 02:14:34;;;;;;;93.38;55.38;;;-4.30;92.30;;;;;;5018254;28;20267;-67
2021/01/31 02:17:12;;;;;;;101.13;56.28;;;-4.30;92.20;;;;;;5004247;28;20544;-67
2021/01/31 02:20:11;;;;;;;94.72;55.30;;;-4.30;92.10;;;;;;5018435;28;20209;-67
2021/01/31 02:23:28;;;;;;;85.63;51.50;;;-4.40;92.10;;;;;;5014575;28;20720;-67
2021/01/31 02:26:08;;;;;;;91.80;54.78;;;-4.40;92.00;;;;;;5027456;28;20205;-67
2021/01/31 02:28:56;;;;;;;94.45;55.95;;;-2.70;92.50;;;;;;5019827;28;20236;-68
2021/01/31 02:31:34;;;;;;;93.38;54.53;;;-4.50;92.10;;;;;;5018461;28;20213;-66
2021/01/31 02:34:07;;;;;;;87.45;51.78;;;-4.60;92.50;;;;;;5019961;28;20215;-66
2021/01/31 02:37:01;;;;;;;91.63;53.28;;;-4.50;92.30;;;;;;5011976;28;20217;-66
2021/01/31 02:39:58;;;;;;;102.07;57.00;;;-4.60;92.30;;;;;;5009236;28;20209;-67
2021/01/31 02:43:08;;;;;;;90.97;51.10;;;-4.60;92.40;;;;;;5011957;28;20526;-67
2021/01/31 02:45:44;;;;;;;105.85;54.58;;;-4.70;92.50;;;;;;5005932;28;20217;-67
2021/01/31 02:48:31;;;;;;;101.55;55.95;;;-4.60;92.40;;;;;;5021623;28;20232;-67
2021/01/31 02:51:11;;;;;;;92.07;53.88;;;-4.60;92.40;;;;;;5016615;28;20202;-67
2021/01/31 02:53:43;;;;;;;81.13;47.20;;;-4.60;92.40;;;;;;5014604;28;20208;-67
2021/01/31 02:56:40;;;;;;;83.50;51.58;;;-4.60;92.50;;;;;;5008888;28;20209;-66
2021/01/31 02:59:12;;;;;;;73.38;46.10;;;-4.60;92.40;;;;;;5010812;28;20224;-67
2021/01/31 03:01:47;;;;;;;88.13;52.28;;;-4.60;92.40;;;;;;5010867;28;20308;-66
2021/01/31 03:04:38;;;;;;;95.60;51.63;;;-4.70;92.40;;;;;;5011169;28;20209;-66
2021/01/31 03:07:26;;;;;;;83.38;52.20;;;-4.70;92.60;;;;;;5018174;28;20267;-67
2021/01/31 03:09:58;;;;;;;99.85;58.50;;;-4.60;92.70;;;;;;5014945;28;20549;-66
2021/01/31 03:12:34;;;;;;;97.22;58.60;;;-4.50;92.80;;;;;;5024613;28;20216;-66
2021/01/31 03:15:11;;;;;;;86.97;55.40;;;-4.40;93.00;;;;;;5020319;28;20228;-66
2021/01/31 03:17:43;;;;;;;87.75;50.33;;;-4.20;93.00;;;;;;5020969;28;20212;-66
2021/01/31 03:20:32;;;;;;;92.50;54.47;;;-4.10;93.30;;;;;;5017551;28;20216;-67
2021/01/31 03:23:13;;;;;;;100.53;56.95;;;-1.90;93.70;;;;;;5013688;28;20225;-67
2021/01/31 03:25:47;;;;;;;85.53;49.25;;;-3.70;93.00;;;;;;5014525;28;20225;-66
2021/01/31 03:28:13;;;;;;;85.97;51.03;;;-3.50;92.80;;;;;;5006389;28;20239;-66
2021/01/31 03:30:41;;;;;;;97.18;53.05;;;-3.40;92.80;;;;;;5000689;28;20698;-66
2021/01/31 03:33:24;;;;;;;85.28;50.08;;;-3.10;92.70;;;;;;5003412;28;20244;-66
2021/01/31 03:35:53;;;;;;;80.30;47.85;;;-2.20;93.00;;;;;;5010199;28;20197;-66
2021/01/31 03:38:38;;;;;;;85.00;49.75;;;-3.20;92.80;;;;;;5015406;28;20209;-66
2021/01/31 03:41:11;;;;;;;78.15;45.70;;;-2.20;93.10;;;;;;5017698;28;20204;-67
2021/01/31 03:43:38;;;;;;;76.15;44.90;;;-1.80;93.10;;;;;;5017400;28;20227;-67
2021/01/31 03:46:09;;;;;;;72.10;46.25;;;-0.60;93.10;;;;;;5019837;28;20272;-66
2021/01/31 03:48:48;;;;;;;90.47;47.80;;;-2.80;92.20;;;;;;5012119;28;20244;-66
2021/01/31 03:51:15;;;;;;;76.90;48.65;;;-2.70;92.00;;;;;;5010767;28;20507;-66
2021/01/31 03:53:42;;;;;;;78.97;47.03;;;-2.90;92.20;;;;;;5045385;28;20408;-65
2021/01/31 03:56:12;;;;;;;76.75;43.88;;;-1.80;92.90;;;;;;5018577;28;20247;-66
2021/01/31 03:58:41;;;;;;;69.93;44.38;;;-3.60;92.70;;;;;;5007868;28;20214;-66
2021/01/31 04:01:11;;;;;;;69.10;39.83;;;-2.60;92.70;;;;;;5017476;28;20252;-66
2021/01/31 04:03:44;;;;;;;72.75;44.95;;;-2.20;92.80;;;;;;5009583;28;20228;-65
2021/01/31 04:06:17;;;;;;;72.28;42.78;;;-3.80;92.30;;;;;;5003516;28;20205;-65
2021/01/31 04:08:47;;;;;;;79.88;44.75;;;-4.00;92.60;;;;;;5019735;28;20527;-65
2021/01/31 04:11:37;;;;;;;75.72;43.55;;;-4.00;92.80;;;;;;5018907;28;20212;-65
2021/01/31 04:14:26;;;;;;;73.88;45.03;;;-3.90;92.70;;;;;;5009110;28;20217;-65
2021/01/31 04:16:53;;;;;;;79.13;44.88;;;-4.00;92.50;;;;;;5006875;28;20526;-64
2021/01/31 04:19:21;;;;;;;76.00;44.30;;;-4.30;92.30;;;;;;5019861;28;20213;-65
2021/01/31 04:21:47;;;;;;;65.68;38.35;;;-4.40;92.70;;;;;;5008570;28;20275;-65
2021/01/31 04:24:14;;;;;;;62.53;36.40;;;-2.50;93.30;;;;;;5011930;28;20213;-64
2021/01/31 04:26:41;;;;;;;59.67;34.30;;;-4.30;92.60;;;;;;5019437;28;20205;-65
2021/01/31 04:29:08;;;;;;;59.67;32.90;;;-2.20;93.10;;;;;;5020273;28;20215;-65
2021/01/31 04:31:35;;;;;;;54.50;31.02;;;-2.70;92.90;;;;;;5016822;28;20407;-65
2021/01/31 04:34:02;;;;;;;42.78;25.52;;;-4.30;92.60;;;;;;5000431;28;20210;-65
2021/01/31 04:36:29;;;;;;;42.30;24.60;;;-4.40;92.70;;;;;;5014448;28;20215;-65
2021/01/31 04:38:56;;;;;;;40.88;23.65;;;-4.40;92.80;;;;;;5012868;28;20555;-65
2021/01/31 04:41:29;;;;;;;36.60;21.05;;;-4.50;93.20;;;;;;5013301;28;20284;-65
2021/01/31 04:43:56;;;;;;;36.65;20.85;;;-4.70;93.20;;;;;;5028671;28;20211;-65
2021/01/31 04:46:39;;;;;;;44.00;25.48;;;-3.50;93.80;;;;;;5002798;28;20213;-65
2021/01/31 04:49:28;;;;;;;46.58;25.10;;;-4.50;93.40;;;;;;5005869;28;20347;-65
2021/01/31 04:51:58;;;;;;;38.15;22.73;;;-4.60;93.40;;;;;;5007276;28;20233;-64
2021/01/31 04:54:30;;;;;;;39.13;24.00;;;-2.70;94.00;;;;;;5012172;28;20209;-65
2021/01/31 04:57:20;;;;;;;45.13;25.80;;;-2.70;94.00;;;;;;5006174;28;20236;-64
2021/01/31 04:59:50;;;;;;;40.20;22.30;;;-4.60;93.60;;;;;;5018973;28;20213;-64
2021/01/31 05:02:30;;;;;;;39.65;22.98;;;-2.50;94.00;;;;;;5016707;28;20215;-64
2021/01/31 05:04:59;;;;;;;42.28;24.20;;;-4.70;93.60;;;;;;5009498;28;20209;-64
2021/01/31 05:07:39;;;;;;;40.97;24.95;;;-4.60;93.60;;;;;;5018801;28;20243;-64
2021/01/31 05:10:06;;;;;;;38.05;23.65;;;-3.90;93.70;;;;;;5008378;28;20248;-64
2021/01/31 05:12:57;;;;;;;47.17;23.88;;;-4.60;93.50;;;;;;5002377;28;20326;-64
2021/01/31 05:15:29;;;;;;;41.13;23.27;;;-4.50;93.80;;;;;;5018735;28;20244;-64
2021/01/31 05:17:59;;;;;;;38.65;23.58;;;-4.30;93.40;;;;;;5013336;28;20221;-64
2021/01/31 05:20:30;;;;;;;40.58;26.10;;;-4.20;93.30;;;;;;5010736;28;20216;-64
2021/01/31 05:22:59;;;;;;;41.13;25.15;;;-2.00;93.60;;;;;;5004840;28;20208;-64
2021/01/31 05:25:32;;;;;;;43.47;23.63;;;-3.80;92.70;;;;;;5019121;28;20213;-66
2021/01/31 05:28:01;;;;;;;38.20;24.30;;;-3.90;92.70;;;;;;5018619;28;20428;-64
2021/01/31 05:30:30;;;;;;;41.05;25.23;;;-3.80;92.90;;;;;;5008858;28;20396;-64
2021/01/31 05:33:07;;;;;;;46.17;25.00;;;-3.70;92.70;;;;;;5015423;28;20209;-64
2021/01/31 05:35:41;;;;;;;42.92;25.27;;;-3.10;92.90;;;;;;5019169;28;20208;-64
2021/01/31 05:38:12;;;;;;;44.72;24.48;;;-3.40;92.30;;;;;;5019122;28;20276;-63
2021/01/31 05:40:43;;;;;;;40.83;25.15;;;-3.50;92.30;;;;;;5010028;28;20563;-64
2021/01/31 05:43:22;;;;;;;41.35;24.75;;;-3.50;92.30;;;;;;5010272;28;20209;-63
2021/01/31 05:45:49;;;;;;;37.33;25.67;;;-3.10;92.60;;;;;;5018607;28;20208;-64
2021/01/31 05:48:23;;;;;;;44.33;25.05;;;-3.50;92.40;;;;;;5018595;28;20559;-63
2021/01/31 05:50:52;;;;;;;44.72;25.00;;;-3.50;92.30;;;;;;5009674;28;20215;-63
2021/01/31 05:53:31;;;;;;;42.50;23.60;;;-2.00;92.80;;;;;;5018744;28;20238;-64
2021/01/31 05:56:25;;;;;;;46.70;25.35;;;-3.50;92.60;;;;;;5018930;28;20205;-64
2021/01/31 05:59:00;;;;;;;41.22;26.98;;;-3.30;92.20;;;;;;5018165;28;20620;-69
2021/01/31 06:01:27;;;;;;;40.90;25.55;;;-1.40;92.50;;;;;;5019147;28;20204;-64
2021/01/31 06:04:24;;;;;;;48.28;29.10;;;-3.30;91.90;;;;;;5019593;28;20240;-64
2021/01/31 06:06:52;;;;;;;49.45;28.55;;;-3.40;91.80;;;;;;5025374;28;20275;-64
2021/01/31 06:09:35;;;;;;;50.95;30.83;;;-1.60;92.80;;;;;;5054426;28;20561;-63
2021/01/31 06:12:21;;;;;;;45.25;29.23;;;-2.60;92.80;;;;;;5019523;28;20211;-64
2021/01/31 06:15:14;;;;;;;46.92;30.65;;;-2.80;92.40;;;;;;5021542;28;20237;-64
2021/01/31 06:17:42;;;;;;;64.68;32.42;;;-3.70;92.50;;;;;;5019200;28;20226;-63
2021/01/31 06:20:17;;;;;;;61.10;33.45;;;-1.80;93.30;;;;;;5022483;28;20216;-63
2021/01/31 06:22:47;;;;;;;55.28;31.80;;;-3.50;92.70;;;;;;5021812;28;20241;-63
2021/01/31 06:25:40;;;;;;;57.08;31.05;;;-3.10;92.60;;;;;;5012982;28;20210;-64
2021/01/31 06:28:10;;;;;;;64.00;30.98;;;-3.40;92.50;;;;;;5020827;28;20392;-64
2021/01/31 06:30:42;;;;;;;51.92;32.08;;;-3.30;92.40;;;;;;5019768;28;20236;-63
2021/01/31 06:33:10;;;;;;;56.85;29.30;;;-3.20;92.30;;;;;;5006483;28;20208;-63
2021/01/31 06:35:36;;;;;;;50.05;28.15;;;-1.70;92.40;;;;;;5021593;28;20212;-63
2021/01/31 06:38:03;;;;;;;46.47;26.15;;;-3.10;91.90;;;;;;5004931;28;20515;-64
2021/01/31 06:40:46;;;;;;;53.30;28.85;;;-1.70;92.40;;;;;;5010742;28;20549;-63
2021/01/31 06:43:28;;;;;;;51.25;30.05;;;-3.40;92.00;;;;;;5022116;28;20201;-62
2021/01/31 06:46:13;;;;;;;46.92;29.92;;;-3.60;92.20;;;;;;5013189;28;20193;-63
2021/01/31 06:48:59;;;;;;;47.15;27.98;;;-3.80;92.40;;;;;;5015195;28;20232;-63
2021/01/31 06:51:55;;;;;;;47.83;27.48;;;-3.90;92.70;;;;;;5016449;28;20216;-63
2021/01/31 06:55:05;;;;;;;49.47;28.25;;;-3.70;92.60;;;;;;5012116;28;20243;-63
2021/01/31 06:57:47;;;;;;;46.03;28.60;;;-3.60;92.50;;;;;;4998697;28;20213;-63
2021/01/31 07:00:20;;;;;;;45.88;25.52;;;-3.60;92.40;;;;;;5014427;28;20216;-63
2021/01/31 07:03:16;;;;;;;46.58;26.23;;;-3.70;92.50;;;;;;5018166;28;20220;-63
2021/01/31 07:06:13;;;;;;;43.85;25.48;;;-3.70;92.80;;;;;;5017580;28;20259;-63
2021/01/31 07:09:11;;;;;;;43.33;26.50;;;-3.30;92.70;;;;;;5020730;28;20244;-63
2021/01/31 07:11:48;;;;;;;42.10;25.70;;;-3.20;92.20;;;;;;5010685;28;20205;-63
2021/01/31 07:14:28;;;;;;;41.75;26.00;;;-3.10;92.20;;;;;;5018069;28;20209;-63
2021/01/31 07:17:05;;;;;;;46.38;26.95;;;-2.90;92.10;;;;;;5012158;28;20205;-63
2021/01/31 07:20:00;;;;;;;42.40;25.65;;;-1.30;92.20;;;;;;5018954;28;20468;-63
2021/01/31 07:22:51;;;;;;;38.80;25.15;;;-2.70;91.80;;;;;;5015429;28;20214;-63
2021/01/31 07:25:25;;;;;;;47.28;27.42;;;-2.90;91.90;;;;;;5020936;28;20201;-64
2021/01/31 07:28:16;;;;;;;46.78;26.20;;;-2.70;92.10;;;;;;5005739;28;20235;-63
2021/01/31 07:31:18;;;;;;;42.28;24.65;;;-2.50;92.10;;;;;;5013765;28;20268;-63
2021/01/31 07:34:02;;;;;;;43.97;26.77;;;-2.50;91.70;;;;;;5012961;28;20272;-62
2021/01/31 07:36:37;;;;;;;46.28;26.33;;;-2.60;91.90;;;;;;5016948;28;20289;-61
2021/01/31 07:39:10;;;;;;;44.55;25.80;;;-2.40;91.90;;;;;;5006524;28;20714;-62
2021/01/31 07:41:51;;;;;;;48.30;27.05;;;-2.10;91.80;;;;;;5018925;28;20206;-63
2021/01/31 07:44:23;;;;;;;40.42;24.92;;;-1.70;91.90;;;;;;5013486;28;20204;-63
2021/01/31 07:46:50;;;;;;;36.47;25.30;;;-0.40;91.40;;;;;;5011647;28;20205;-62
2021/01/31 07:49:16;;;;;;;42.20;24.40;;;-0.50;91.30;;;;;;5020147;28;20701;-62
2021/01/31 07:52:04;;;;;;;38.22;22.88;;;-1.40;90.80;;;;;;5020577;28;20232;-62
2021/01/31 07:54:36;;;;;;;43.50;24.67;;;0.20;91.50;;;;;;5009448;28;20209;-62
2021/01/31 07:57:37;;;;;;;33.38;22.50;;;-1.20;90.80;;;;;;5020363;28;20215;-63
2021/01/31 08:00:16;;;;;;;37.00;23.85;;;-1.00;90.80;;;;;;5008454;28;20208;-64
2021/01/31 08:02:48;;;;;;;33.75;20.67;;;-1.00;90.60;;;;;;5006092;28;20209;-63
2021/01/31 08:05:54;;;;;;;37.13;23.77;;;-0.80;90.60;;;;;;5007677;28;20296;-62
2021/01/31 08:08:48;;;;;;;35.25;22.10;;;-0.80;90.00;;;;;;5000855;28;20237;-62
2021/01/31 08:11:17;;;;;;;44.83;26.27;;;-1.10;89.60;;;;;;5015008;28;20229;-62
2021/01/31 08:13:49;;;;;;;54.00;26.80;;;-1.30;90.30;;;;;;5018881;28;20204;-62
2021/01/31 08:16:43;;;;;;;37.42;23.65;;;0.40;90.90;;;;;;5014472;28;20251;-63
2021/01/31 08:19:11;;;;;;;51.30;26.50;;;-1.00;90.20;;;;;;5020513;28;20279;-62
2021/01/31 08:22:04;;;;;;;46.45;26.60;;;-1.00;90.00;;;;;;5019027;28;20209;-63
2021/01/31 08:25:05;;;;;;;46.15;27.70;;;-0.80;90.00;;;;;;5020200;28;20196;-62
2021/01/31 08:27:37;;;;;;;50.92;27.63;;;-1.10;89.20;;;;;;5019390;28;20303;-63
2021/01/31 08:30:29;;;;;;;57.65;32.67;;;-0.80;90.00;;;;;;4999654;28;20209;-63
2021/01/31 08:33:01;;;;;;;56.55;32.10;;;-0.90;89.00;;;;;;5030623;28;20214;-63
2021/01/31 08:35:42;;;;;;;61.20;35.40;;;-0.60;90.00;;;;;;5019612;28;20209;-63
2021/01/31 08:38:25;;;;;;;51.95;33.53;;;-0.70;90.00;;;;;;5015838;28;20197;-63
2021/01/31 08:41:00;;;;;;;59.72;33.67;;;-0.20;90.20;;;;;;5005474;28;20204;-62
2021/01/31 08:43:42;;;;;;;61.78;32.70;;;-0.60;90.20;;;;;;5009410;28;20709;-63
2021/01/31 08:46:10;;;;;;;53.53;30.67;;;-0.50;90.20;;;;;;5015478;28;20500;-62
2021/01/31 08:48:38;;;;;;;52.67;32.45;;;0.90;90.60;;;;;;5019089;28;20247;-63
2021/01/31 08:51:16;;;;;;;68.15;36.05;;;-0.30;90.40;;;;;;5015739;28;20204;-63
2021/01/31 08:53:43;;;;;;;77.38;43.45;;;-0.20;89.40;;;;;;5017732;28;20363;-62
2021/01/31 08:56:23;;;;;;;95.53;54.08;;;-0.30;89.00;;;;;;5002703;28;20244;-63
2021/01/31 08:58:50;;;;;;;72.47;40.45;;;-0.10;88.90;;;;;;5012861;28;20243;-62
2021/01/31 09:01:17;;;;;;;58.30;34.28;;;0.20;90.00;;;;;;5009926;28;20215;-62
2021/01/31 09:03:44;;;;;;;67.90;40.03;;;0.60;88.00;;;;;;5013930;28;20219;-63
2021/01/31 09:06:12;;;;;;;59.75;37.85;;;0.50;85.90;;;;;;5014231;28;20215;-62
2021/01/31 09:08:43;;;;;;;54.42;32.67;;;1.00;87.20;;;;;;5012183;28;20323;-63
2021/01/31 09:11:16;;;;;;;48.97;31.02;;;1.20;84.60;;;;;;5018375;28;20228;-64
2021/01/31 09:13:42;;;;;;;60.70;31.25;;;1.20;85.50;;;;;;5002315;28;20217;-62
2021/01/31 09:16:24;;;;;;;54.00;35.38;;;1.30;85.50;;;;;;5010475;28;20240;-62
2021/01/31 09:19:09;;;;;;;50.60;30.33;;;1.70;84.90;;;;;;5016750;28;20219;-62
2021/01/31 09:21:38;;;;;;;51.55;28.20;;;1.80;81.60;;;;;;5017335;28;20272;-63
2021/01/31 09:24:11;;;;;;;50.58;28.08;;;1.90;81.40;;;;;;5013312;28;20212;-63
2021/01/31 09:26:37;;;;;;;52.17;30.33;;;2.10;79.50;;;;;;5015477;28;20410;-63
2021/01/31 09:29:10;;;;;;;46.00;29.85;;;2.20;80.70;;;;;;5017466;28;20296;-62
2021/01/31 09:31:38;;;;;;;51.70;29.75;;;2.40;78.60;;;;;;5018500;28;20247;-63
2021/01/31 09:34:05;;;;;;;50.83;28.67;;;2.50;76.50;;;;;;5012410;28;20454;-63
2021/01/31 09:36:34;;;;;;;53.00;29.77;;;2.30;75.40;;;;;;5015392;28;20209;-62
2021/01/31 09:39:05;;;;;;;55.88;29.30;;;2.10;75.70;;;;;;5007038;28;20276;-63
2021/01/31 09:41:33;;;;;;;51.70;29.05;;;2.00;76.50;;;;;;5015884;28;20220;-62
2021/01/31 09:44:03;;;;;;;48.03;27.02;;;1.90;76.90;;;;;;5005602;28;20205;-62
2021/01/31 09:46:31;;;;;;;46.80;27.98;;;1.40;76.40;;;;;;5009643;28;20507;-63
2021/01/31 09:49:17;;;;;;;49.60;28.13;;;1.20;78.10;;;;;;5003784;28;20234;-62
2021/01/31 09:51:44;;;;;;;42.88;27.63;;;1.20;78.80;;;;;;5011656;28;20207;-63
2021/01/31 09:54:18;;;;;;;41.17;25.52;;;2.90;80.00;;;;;;5017320;28;20239;-62
2021/01/31 09:56:49;;;;;;;40.95;24.35;;;0.90;79.30;;;;;;4997519;28;20227;-62
2021/01/31 09:59:28;;;;;;;43.20;22.70;;;0.60;78.30;;;;;;4998716;28;20218;-62
2021/01/31 10:02:03;;;;;;;31.40;20.83;;;0.30;79.90;;;;;;5005326;28;20197;-63
2021/01/31 10:04:30;;;;;;;36.28;21.13;;;1.40;81.40;;;;;;4998494;28;20236;-62
2021/01/31 10:07:23;;;;;;;35.72;22.95;;;0.50;80.60;;;;;;5014405;28;20276;-62
2021/01/31 10:09:52;;;;;;;42.83;24.35;;;0.20;81.30;;;;;;4999014;28;20234;-62
2021/01/31 10:12:34;;;;;;;42.95;22.92;;;0.30;81.20;;;;;;5010291;28;20198;-61
2021/01/31 10:15:07;;;;;;;55.30;23.65;;;0.50;80.20;;;;;;5018031;28;20243;-62
2021/01/31 10:17:39;;;;;;;35.65;20.00;;;0.30;80.90;;;;;;5016328;28;20493;-62
2021/01/31 10:20:35;;;;;;;28.23;18.73;;;0.30;79.40;;;;;;5006910;28;20377;-62
2021/01/31 10:23:08;;;;;;;29.10;18.00;;;0.10;80.00;;;;;;5006647;28;20208;-62
2021/01/31 10:25:37;;;;;;;32.05;19.00;;;0.00;79.90;;;;;;5001115;28;20224;-61
2021/01/31 10:28:05;;;;;;;39.63;22.05;;;0.00;81.20;;;;;;5004646;28;20233;-63
2021/01/31 10:30:45;;;;;;;35.05;21.42;;;-0.10;81.50;;;;;;5001635;28;20201;-62
2021/01/31 10:33:42;;;;;;;30.50;15.65;;;-0.20;81.80;;;;;;5002638;28;20208;-63
2021/01/31 10:36:21;;;;;;;24.52;13.82;;;-0.30;83.00;;;;;;5012080;28;20554;-63
2021/01/31 10:38:48;;;;;;;27.60;15.30;;;0.00;80.40;;;;;;5004988;28;20890;-62
2021/01/31 10:41:14;;;;;;;25.13;13.93;;;-0.20;79.60;;;;;;5014372;28;20223;-62
2021/01/31 10:43:41;;;;;;;23.75;13.93;;;-0.20;79.90;;;;;;5013332;28;20247;-62
2021/01/31 10:46:08;;;;;;;26.15;14.88;;;-0.20;80.10;;;;;;5017945;28;20268;-62
2021/01/31 10:48:34;;;;;;;22.65;13.20;;;-0.30;78.80;;;;;;5016851;28;20411;-62
2021/01/31 10:51:02;;;;;;;15.00;9.60;;;-0.20;79.70;;;;;;5016228;28;20206;-61
2021/01/31 10:53:29;;;;;;;18.40;10.85;;;-0.10;76.70;;;;;;5019482;28;20215;-62
2021/01/31 10:55:55;;;;;;;13.38;8.00;;;0.00;76.50;;;;;;5007637;28;20228;-62
2021/01/31 10:58:22;;;;;;;8.30;6.03;;;-0.10;77.60;;;;;;5019820;28;20208;-62
2021/01/31 11:00:49;;;;;;;9.93;5.78;;;-0.20;75.60;;;;;;5006342;28;20652;-63
2021/01/31 11:03:16;;;;;;;14.45;9.52;;;-0.30;76.70;;;;;;5018852;28;20292;-62
2021/01/31 11:05:42;;;;;;;9.65;6.90;;;-0.20;76.60;;;;;;5017564;28;20268;-62
2021/01/31 11:08:09;;;;;;;9.30;5.95;;;-0.10;76.30;;;;;;5004788;28;20240;-62
2021/01/31 11:10:36;;;;;;;13.15;8.10;;;0.00;76.30;;;;;;5012039;28;20433;-62
2021/01/31 11:13:02;;;;;;;14.30;8.45;;;0.00;76.80;;;;;;5004462;28;20236;-62
2021/01/31 11:15:29;;;;;;;18.83;10.10;;;-0.10;77.20;;;;;;5014611;28;20247;-62
2021/01/31 11:17:56;;;;;;;13.18;7.63;;;-0.40;77.60;;;;;;5020001;28;20209;-63
2021/01/31 11:20:23;;;;;;;11.75;7.65;;;-0.30;77.40;;;;;;5019037;28;20435;-63
2021/01/31 11:22:49;;;;;;;10.65;6.78;;;0.00;78.60;;;;;;5009236;28;20204;-63
2021/01/31 11:25:16;;;;;;;13.85;8.45;;;-0.20;78.30;;;;;;5013190;28;20209;-63
2021/01/31 11:27:43;;;;;;;11.45;8.82;;;1.30;77.70;;;;;;5015576;28;20235;-62
2021/01/31 11:30:10;;;;;;;14.65;8.57;;;1.20;77.80;;;;;;4998315;28;20411;-63
2021/01/31 11:32:37;;;;;;;21.23;12.05;;;-0.30;76.40;;;;;;5026966;28;20208;-62
2021/01/31 11:35:04;;;;;;;14.15;10.60;;;-0.30;76.20;;;;;;5011296;28;20487;-62
2021/01/31 11:37:31;;;;;;;14.98;9.93;;;-0.10;76.00;;;;;;5010180;28;20221;-62
2021/01/31 11:39:58;;;;;;;17.33;11.48;;;0.20;77.20;;;;;;5011674;28;20419;-63
2021/01/31 11:42:25;;;;;;;13.52;7.95;;;0.00;77.30;;;;;;5009970;28;20217;-63
2021/01/31 11:44:51;;;;;;;11.77;6.53;;;0.30;75.60;;;;;;5012974;28;20240;-63
2021/01/31 11:47:18;;;;;;;14.00;8.55;;;0.00;73.10;;;;;;5008552;28;20219;-62
2021/01/31 11:49:44;;;;;;;15.05;8.88;;;-0.10;75.20;;;;;;5015274;28;20455;-63
2021/01/31 11:52:11;;;;;;;11.75;7.50;;;-0.40;76.10;;;;;;5007775;28;20550;-63
2021/01/31 11:54:38;;;;;;;11.57;7.40;;;-0.40;77.60;;;;;;5011208;28;20256;-63
2021/01/31 11:57:04;;;;;;;11.43;9.27;;;-0.40;76.50;;;;;;5003600;28;20534;-63
2021/01/31 11:59:31;;;;;;;13.23;8.10;;;-0.40;77.40;;;;;;5007450;28;20508;-63
2021/01/31 12:01:57;;;;;;;12.35;7.85;;;-0.40;77.50;;;;;;5015917;28;20503;-62
2021/01/31 12:04:24;;;;;;;11.90;8.05;;;-0.40;77.00;;;;;;5002582;28;20206;-63
2021/01/31 12:06:51;;;;;;;13.57;6.82;;;-0.60;76.00;;;;;;5015494;28;20235;-62
2021/01/31 12:09:17;;;;;;;12.63;8.40;;;-0.60;77.80;;;;;;5013516;28;20237;-62
2021/01/31 12:11:44;;;;;;;11.48;6.78;;;-0.60;78.20;;;;;;5015670;28;20232;-61
2021/01/31 12:14:10;;;;;;;14.98;7.50;;;-0.70;76.50;;;;;;5013819;28;20534;-63
2021/01/31 12:16:37;;;;;;;11.05;6.00;;;1.00;77.40;;;;;;5018496;28;20619;-61
2021/01/31 12:19:03;;;;;;;15.05;8.73;;;-0.50;76.50;;;;;;5017677;28;20224;-62
2021/01/31 12:21:30;;;;;;;10.48;7.00;;;-0.50;77.50;;;;;;5011545;28;20213;-62
2021/01/31 12:23:57;;;;;;;11.88;7.15;;;-0.60;76.50;;;;;;5011261;28;20205;-61
2021/01/31 12:26:27;;;;;;;12.13;7.30;;;-0.60;76.80;;;;;;5006966;28;20220;-63
2021/01/31 12:28:54;;;;;;;16.88;7.97;;;-0.50;76.20;;;;;;5012824;28;20232;-62
2021/01/31 12:31:23;;;;;;;14.00;9.32;;;-0.50;75.80;;;;;;5014841;28;20205;-63
2021/01/31 12:33:49;;;;;;;14.25;9.50;;;-0.50;77.40;;;;;;5015430;28;20205;-64
2021/01/31 12:36:16;;;;;;;9.55;7.70;;;-0.40;78.50;;;;;;5013031;28;20423;-62
2021/01/31 12:38:43;;;;;;;15.63;8.00;;;-0.10;77.40;;;;;;5018776;28;20256;-62
2021/01/31 12:41:10;;;;;;;13.57;8.10;;;-0.20;76.90;;;;;;5019202;28;20205;-61
2021/01/31 12:43:36;;;;;;;12.27;6.97;;;1.20;76.80;;;;;;5017995;28;20209;-62
2021/01/31 12:46:21;;;;;;;10.32;7.22;;;-0.10;75.90;;;;;;5016187;28;20205;-62
2021/01/31 12:48:48;;;;;;;14.65;7.70;;;-0.10;75.80;;;;;;5011349;28;20431;-62
2021/01/31 12:51:15;;;;;;;15.82;8.07;;;-0.20;75.00;;;;;;5012443;28;20204;-64
2021/01/31 12:53:42;;;;;;;17.23;8.10;;;-0.10;75.30;;;;;;5015092;28;20268;-62
2021/01/31 12:56:09;;;;;;;12.93;7.45;;;-0.20;75.50;;;;;;5011668;28;20209;-61
2021/01/31 12:58:36;;;;;;;11.75;7.75;;;0.30;76.90;;;;;;5007757;28;20273;-61
2021/01/31 13:01:03;;;;;;;16.33;8.43;;;0.00;75.80;;;;;;5021829;28;20272;-61
2021/01/31 13:03:29;;;;;;;14.38;7.88;;;0.00;75.20;;;;;;5018305;28;20438;-62